createdAt,value
2023-03-29T00:00:21.298Z,93.60
2023-03-29T00:02:49.137Z,93.60
2023-03-29T00:05:25.312Z,93.90
2023-03-29T00:07:54.363Z,93.70
2023-03-29T00:10:23.993Z,94.00
2023-03-29T00:12:52.466Z,93.80
2023-03-29T00:15:19.842Z,93.80
2023-03-29T00:17:46.618Z,93.80
2023-03-29T00:20:13.764Z,93.90
2023-03-29T00:22:44.298Z,94.00
2023-03-29T00:25:11.845Z,93.90
2023-03-29T00:27:39.243Z,94.00
2023-03-29T00:30:08.132Z,94.00
2023-03-29T00:32:34.962Z,93.90
2023-03-29T00:35:01.865Z,94.00
2023-03-29T00:37:29.949Z,93.90
2023-03-29T00:39:57.726Z,93.90
2023-03-29T00:42:25.652Z,93.90
2023-03-29T00:45:17.365Z,93.80
2023-03-29T00:47:49.381Z,94.00
2023-03-29T00:50:25.982Z,93.80
2023-03-29T00:53:02.441Z,93.80
2023-03-29T00:55:36.416Z,93.80
2023-03-29T00:58:07.320Z,93.70
2023-03-29T01:00:38.256Z,93.70
2023-03-29T01:03:13.466Z,93.70
2023-03-29T01:05:49.687Z,93.70
2023-03-29T01:08:41.877Z,93.60
2023-03-29T01:11:22.220Z,93.50
2023-03-29T01:14:28.375Z,93.40
2023-03-29T01:16:55.262Z,93.50
2023-03-29T01:19:28.399Z,93.10
2023-03-29T01:22:26.103Z,93.00
2023-03-29T01:25:22.409Z,92.90
2023-03-29T01:27:51.848Z,92.80
2023-03-29T01:30:33.247Z,92.70
2023-03-29T01:33:06.230Z,92.70
2023-03-29T01:35:50.117Z,92.60
2023-03-29T01:38:25.726Z,92.60
2023-03-29T01:40:52.622Z,92.60
2023-03-29T01:43:38.340Z,92.60
2023-03-29T01:46:19.110Z,92.60
2023-03-29T01:48:54.956Z,92.70
2023-03-29T01:51:42.217Z,92.60
2023-03-29T01:54:15.373Z,92.60
2023-03-29T01:56:45.530Z,92.60
2023-03-29T01:59:18.175Z,92.60
2023-03-29T02:01:51.767Z,92.60
2023-03-29T02:04:25.690Z,92.60
2023-03-29T02:06:54.678Z,92.60
2023-03-29T02:09:23.308Z,92.60
2023-03-29T02:11:52.735Z,92.70
2023-03-29T02:14:19.476Z,93.00
2023-03-29T02:16:46.419Z,92.90
2023-03-29T02:19:14.176Z,92.70
2023-03-29T02:21:51.898Z,93.00
2023-03-29T02:24:21.943Z,92.80
2023-03-29T02:26:49.400Z,92.80
2023-03-29T02:29:16.554Z,92.90
2023-03-29T02:31:51.848Z,92.90
2023-03-29T02:34:28.861Z,93.20
2023-03-29T02:37:03.243Z,92.90
2023-03-29T02:39:33.651Z,92.90
2023-03-29T02:42:01.838Z,92.80
2023-03-29T02:44:31.385Z,92.70
2023-03-29T02:47:13.676Z,92.70
2023-03-29T02:49:40.534Z,92.70
2023-03-29T02:52:18.747Z,92.60
2023-03-29T02:54:48.359Z,93.00
2023-03-29T02:57:15.114Z,92.60
2023-03-29T02:59:44.218Z,92.50
2023-03-29T03:02:11.814Z,92.50
2023-03-29T03:04:38.602Z,92.50
2023-03-29T03:07:05.416Z,92.50
2023-03-29T03:09:32.269Z,92.50
2023-03-29T03:11:58.939Z,92.60
2023-03-29T03:14:25.700Z,92.60
2023-03-29T03:16:53.637Z,92.60
2023-03-29T03:19:21.259Z,93.00
2023-03-29T03:21:48.001Z,92.60
2023-03-29T03:24:15.566Z,92.60
2023-03-29T03:26:42.294Z,92.70
2023-03-29T03:29:09.692Z,92.70
2023-03-29T03:31:36.518Z,92.70
2023-03-29T03:34:03.212Z,92.80
2023-03-29T03:36:31.658Z,92.80
2023-03-29T03:38:58.406Z,93.10
2023-03-29T03:41:26.331Z,92.80
2023-03-29T03:43:53.344Z,92.90
2023-03-29T03:46:20.319Z,92.90
2023-03-29T03:48:47.277Z,92.90
2023-03-29T03:51:14.335Z,93.00
2023-03-29T03:53:41.674Z,93.30
2023-03-29T03:56:09.192Z,93.00
2023-03-29T03:58:37.033Z,93.00
2023-03-29T04:01:05.390Z,93.00
2023-03-29T04:03:32.460Z,93.00
2023-03-29T04:06:04.155Z,93.40
2023-03-29T04:08:31.002Z,93.10
2023-03-29T04:10:59.426Z,93.10
2023-03-29T04:13:27.186Z,93.20
2023-03-29T04:15:57.174Z,93.20
2023-03-29T04:18:26.327Z,93.20
2023-03-29T04:20:53.106Z,93.20
2023-03-29T04:23:20.034Z,93.20
2023-03-29T04:25:46.847Z,93.20
2023-03-29T04:28:13.658Z,93.50
2023-03-29T04:30:40.470Z,93.20
2023-03-29T04:33:07.299Z,93.20
2023-03-29T04:35:34.158Z,93.30
2023-03-29T04:38:01.002Z,93.30
2023-03-29T04:40:28.919Z,93.60
2023-03-29T04:42:55.746Z,93.30
2023-03-29T04:45:22.742Z,93.40
2023-03-29T04:47:49.720Z,93.30
2023-03-29T04:50:16.658Z,93.70
2023-03-29T04:52:45.408Z,93.40
2023-03-29T04:55:12.818Z,93.40
2023-03-29T04:57:39.733Z,93.50
2023-03-29T05:00:15.539Z,93.50
2023-03-29T05:02:44.334Z,93.50
2023-03-29T05:05:11.679Z,93.50
2023-03-29T05:07:38.716Z,93.90
2023-03-29T05:10:06.742Z,93.70
2023-03-29T05:12:33.529Z,93.70
2023-03-29T05:15:00.329Z,93.70
2023-03-29T05:17:27.512Z,93.80
2023-03-29T05:19:54.819Z,93.80
2023-03-29T05:22:21.802Z,93.80
2023-03-29T05:24:48.834Z,94.20
2023-03-29T05:27:17.082Z,94.20
2023-03-29T05:29:44.880Z,93.90
2023-03-29T05:32:11.993Z,94.00
2023-03-29T05:34:39.232Z,94.30
2023-03-29T05:37:06.104Z,94.10
2023-03-29T05:39:37.576Z,94.10
2023-03-29T05:42:05.114Z,94.10
2023-03-29T05:44:32.054Z,94.20
2023-03-29T05:46:58.860Z,94.50
2023-03-29T05:49:25.674Z,94.30
2023-03-29T05:51:56.877Z,94.30
2023-03-29T05:54:25.044Z,94.20
2023-03-29T05:56:51.887Z,94.20
2023-03-29T05:59:19.645Z,94.20
2023-03-29T06:01:49.144Z,94.30
2023-03-29T06:04:18.044Z,94.30
2023-03-29T06:06:44.994Z,94.50
2023-03-29T06:09:12.315Z,94.70
2023-03-29T06:11:39.274Z,95.00
2023-03-29T06:14:06.292Z,95.10
2023-03-29T06:16:33.128Z,95.30
2023-03-29T06:19:02.116Z,95.30
2023-03-29T06:21:29.036Z,95.30
2023-03-29T06:23:55.817Z,95.40
2023-03-29T06:26:22.676Z,95.50
2023-03-29T06:28:52.039Z,95.50
2023-03-29T06:31:19.934Z,95.40
2023-03-29T06:33:47.719Z,95.30
2023-03-29T06:36:16.249Z,95.20
2023-03-29T06:38:45.895Z,95.10
2023-03-29T06:41:12.666Z,95.00
2023-03-29T06:43:39.751Z,94.80
2023-03-29T06:46:12.250Z,94.70
2023-03-29T06:48:40.195Z,94.70
2023-03-29T06:51:07.629Z,94.70
2023-03-29T06:53:35.303Z,94.50
2023-03-29T06:56:05.710Z,94.20
2023-03-29T06:58:32.884Z,94.10
2023-03-29T07:01:02.449Z,94.00
2023-03-29T07:03:30.036Z,93.90
2023-03-29T07:06:09.701Z,93.70
2023-03-29T07:08:43.317Z,93.60
2023-03-29T07:11:12.632Z,93.50
2023-03-29T07:13:43.259Z,93.30
2023-03-29T07:16:14.745Z,93.20
2023-03-29T07:18:44.059Z,93.00
2023-03-29T07:21:12.476Z,92.70
2023-03-29T07:23:39.916Z,92.70
2023-03-29T07:26:10.480Z,92.00
2023-03-29T07:28:37.834Z,91.20
2023-03-29T07:31:07.109Z,91.10
2023-03-29T07:33:34.612Z,90.60
2023-03-29T07:36:02.054Z,90.70
2023-03-29T07:38:29.073Z,90.90
2023-03-29T07:40:56.242Z,91.10
2023-03-29T07:43:24.107Z,91.20
2023-03-29T07:45:52.708Z,91.20
2023-03-29T07:48:19.908Z,91.10
2023-03-29T07:50:46.799Z,91.40
2023-03-29T07:53:13.707Z,92.00
2023-03-29T07:55:47.352Z,91.70
2023-03-29T07:58:14.553Z,91.20
2023-03-29T08:00:43.639Z,90.60
2023-03-29T08:03:13.229Z,90.40
2023-03-29T08:05:41.787Z,90.50
2023-03-29T08:08:09.808Z,90.50
2023-03-29T08:10:39.135Z,89.90
2023-03-29T08:13:09.048Z,88.90
2023-03-29T08:15:39.115Z,87.10
2023-03-29T08:18:07.702Z,86.10
2023-03-29T08:20:34.721Z,86.30
2023-03-29T08:23:01.827Z,86.80
2023-03-29T08:25:28.615Z,84.40
2023-03-29T08:27:55.454Z,82.50
2023-03-29T08:30:22.356Z,82.10
2023-03-29T08:32:51.657Z,80.80
2023-03-29T08:35:20.814Z,79.40
2023-03-29T08:37:47.731Z,77.60
2023-03-29T08:40:23.156Z,76.80
2023-03-29T08:43:09.817Z,76.20
2023-03-29T08:46:16.492Z,76.20
2023-03-29T08:49:09.400Z,73.40
2023-03-29T08:51:38.810Z,73.10
2023-03-29T08:54:10.826Z,73.10
2023-03-29T08:56:40.622Z,71.70
2023-03-29T08:59:21.298Z,72.80
2023-03-29T09:01:50.257Z,72.10
2023-03-29T09:04:29.039Z,71.60
2023-03-29T09:06:56.185Z,67.90
2023-03-29T09:09:27.817Z,67.80
2023-03-29T09:12:03.517Z,68.80
2023-03-29T09:14:55.707Z,68.50
2023-03-29T09:17:31.053Z,67.80
2023-03-29T09:20:16.706Z,67.90
2023-03-29T09:22:52.442Z,67.60
2023-03-29T09:25:56.721Z,66.40
2023-03-29T09:28:35.361Z,66.70
2023-03-29T09:31:21.571Z,67.10
2023-03-29T09:34:10.438Z,68.00
2023-03-29T09:36:52.910Z,68.70
2023-03-29T09:39:23.522Z,67.60
2023-03-29T09:42:01.713Z,67.50
2023-03-29T09:44:37.462Z,65.60
2023-03-29T09:47:28.384Z,65.10
2023-03-29T09:50:04.988Z,65.10
2023-03-29T09:52:31.965Z,65.10
2023-03-29T09:55:02.132Z,65.10
2023-03-29T09:57:30.593Z,65.70
2023-03-29T09:59:59.467Z,65.00
2023-03-29T10:02:31.556Z,63.20
2023-03-29T10:05:04.074Z,64.10
2023-03-29T10:07:44.946Z,64.70
2023-03-29T10:10:22.106Z,65.00
2023-03-29T10:12:54.432Z,64.80
2023-03-29T10:15:29.269Z,66.40
2023-03-29T10:18:03.448Z,65.40
2023-03-29T10:20:30.833Z,65.10
2023-03-29T10:22:59.417Z,64.00
2023-03-29T10:25:35.766Z,64.70
2023-03-29T10:28:17.771Z,64.60
2023-03-29T10:30:52.485Z,64.80
2023-03-29T10:33:24.148Z,64.30
2023-03-29T10:35:51.622Z,64.50
2023-03-29T10:38:21.010Z,64.40
2023-03-29T10:40:50.703Z,64.50
2023-03-29T10:43:17.362Z,63.70
2023-03-29T10:45:47.964Z,63.30
2023-03-29T10:48:16.462Z,64.00
2023-03-29T10:50:49.690Z,63.90
2023-03-29T10:53:26.666Z,64.30
2023-03-29T10:56:08.329Z,64.50
2023-03-29T10:58:53.919Z,65.50
2023-03-29T11:01:59.059Z,65.10
2023-03-29T11:04:45.392Z,65.00
2023-03-29T11:07:45.467Z,65.20
2023-03-29T11:10:36.820Z,65.00
2023-03-29T11:13:09.731Z,64.70
2023-03-29T11:16:08.305Z,65.30
2023-03-29T11:19:18.993Z,65.60
2023-03-29T11:21:56.121Z,65.20
2023-03-29T11:24:41.653Z,65.00
2023-03-29T11:27:35.874Z,64.60
2023-03-29T11:30:15.937Z,64.80
2023-03-29T11:32:46.015Z,64.80
2023-03-29T11:35:34.411Z,65.70
2023-03-29T11:38:21.790Z,65.10
2023-03-29T11:41:06.095Z,63.80
2023-03-29T11:44:03.909Z,63.20
2023-03-29T11:46:32.912Z,63.30
2023-03-29T11:49:15.479Z,62.90
2023-03-29T11:51:54.347Z,62.30
2023-03-29T11:54:29.943Z,63.40
2023-03-29T11:57:01.858Z,64.70
2023-03-29T11:59:33.025Z,66.30
2023-03-29T12:02:15.300Z,68.20
2023-03-29T12:04:48.447Z,69.70
2023-03-29T12:07:22.836Z,71.20
2023-03-29T12:09:55.664Z,72.30
2023-03-29T12:12:50.660Z,72.40
2023-03-29T12:15:21.859Z,72.00
2023-03-29T12:18:04.496Z,72.40
2023-03-29T12:20:36.428Z,73.20
2023-03-29T12:23:05.377Z,73.70
2023-03-29T12:25:53.277Z,75.00
2023-03-29T12:28:46.027Z,74.50
2023-03-29T12:31:42.040Z,73.70
2023-03-29T12:34:42.540Z,74.20
2023-03-29T12:37:29.897Z,75.00
2023-03-29T12:40:12.526Z,73.80
2023-03-29T12:43:04.860Z,74.30
2023-03-29T12:45:38.942Z,75.30
2023-03-29T12:48:07.614Z,74.70
2023-03-29T12:50:48.848Z,75.20
2023-03-29T12:53:23.025Z,74.50
2023-03-29T12:56:14.910Z,72.70
2023-03-29T12:58:59.505Z,72.00
2023-03-29T13:01:31.448Z,71.00
2023-03-29T13:04:01.840Z,68.30
2023-03-29T13:06:32.729Z,65.80
2023-03-29T13:09:24.542Z,63.60
2023-03-29T13:11:55.363Z,62.30
2023-03-29T13:14:27.778Z,62.30
2023-03-29T13:17:05.843Z,60.70
2023-03-29T13:20:09.737Z,61.20
2023-03-29T13:22:57.007Z,60.70
2023-03-29T13:26:01.881Z,59.80
2023-03-29T13:29:04.760Z,59.50
2023-03-29T13:31:54.538Z,58.90
2023-03-29T13:34:35.490Z,58.30
2023-03-29T13:37:20.859Z,58.70
2023-03-29T13:39:53.918Z,58.10
2023-03-29T13:42:25.385Z,59.10
2023-03-29T13:44:53.913Z,57.20
2023-03-29T13:47:32.677Z,57.60
2023-03-29T13:50:03.854Z,57.60
2023-03-29T13:52:34.802Z,58.20
2023-03-29T13:55:10.627Z,59.20
2023-03-29T13:57:40.734Z,59.50
2023-03-29T14:00:46.196Z,59.70
2023-03-29T14:03:16.140Z,59.10
2023-03-29T14:05:48.994Z,58.80
2023-03-29T14:08:21.544Z,58.30
2023-03-29T14:10:48.786Z,58.30
2023-03-29T14:13:19.505Z,59.10
2023-03-29T14:15:52.958Z,58.30
2023-03-29T14:18:37.550Z,56.80
2023-03-29T14:21:04.588Z,57.40
2023-03-29T14:23:37.521Z,56.20
2023-03-29T14:26:14.234Z,55.90
2023-03-29T14:29:01.073Z,56.00
2023-03-29T14:31:37.184Z,55.70
2023-03-29T14:34:08.018Z,56.10
2023-03-29T14:36:36.498Z,55.30
2023-03-29T14:39:08.178Z,55.20
2023-03-29T14:41:37.588Z,56.00
2023-03-29T14:44:06.859Z,54.30
2023-03-29T14:46:34.756Z,54.00
2023-03-29T14:49:02.353Z,53.60
2023-03-29T14:51:31.220Z,54.00
2023-03-29T14:54:04.042Z,54.30
2023-03-29T14:56:32.801Z,53.80
2023-03-29T14:59:02.580Z,53.00
2023-03-29T15:01:29.473Z,52.60
2023-03-29T15:04:03.369Z,52.00
2023-03-29T15:06:32.109Z,51.60
2023-03-29T15:09:06.069Z,51.60
2023-03-29T15:11:34.390Z,51.90
2023-03-29T15:14:06.407Z,52.20
2023-03-29T15:16:33.711Z,52.70
2023-03-29T15:19:02.175Z,53.10
2023-03-29T15:21:33.913Z,53.60
2023-03-29T15:24:03.318Z,54.30
2023-03-29T15:26:34.368Z,54.70
2023-03-29T15:29:13.629Z,55.20
2023-03-29T15:31:42.036Z,55.70
2023-03-29T15:34:12.620Z,56.30
2023-03-29T15:36:46.447Z,56.10
2023-03-29T15:39:15.431Z,56.50
2023-03-29T15:41:43.014Z,57.80
2023-03-29T15:44:11.059Z,57.30
2023-03-29T15:46:45.026Z,58.20
2023-03-29T15:49:12.806Z,58.80
2023-03-29T15:51:40.362Z,58.60
2023-03-29T15:54:08.019Z,59.30
2023-03-29T15:56:43.512Z,59.80
2023-03-29T15:59:12.048Z,60.30
2023-03-29T16:01:39.400Z,60.60
2023-03-29T16:04:20.733Z,61.20
2023-03-29T16:06:50.568Z,61.80
2023-03-29T16:09:21.976Z,62.20
2023-03-29T16:11:49.829Z,62.90
2023-03-29T16:14:16.536Z,63.30
2023-03-29T16:16:43.654Z,64.60
2023-03-29T16:19:10.368Z,64.30
2023-03-29T16:21:37.599Z,64.80
2023-03-29T16:24:04.820Z,65.20
2023-03-29T16:26:31.720Z,65.40
2023-03-29T16:28:58.558Z,65.60
2023-03-29T16:31:27.026Z,66.00
2023-03-29T16:33:54.049Z,66.30
2023-03-29T16:36:20.896Z,66.80
2023-03-29T16:38:47.701Z,67.20
2023-03-29T16:41:16.333Z,68.30
2023-03-29T16:43:43.962Z,68.30
2023-03-29T16:46:11.833Z,69.00
2023-03-29T16:48:39.000Z,69.70
2023-03-29T16:51:06.858Z,70.30
2023-03-29T16:53:34.517Z,71.00
2023-03-29T16:56:02.629Z,71.60
2023-03-29T16:58:29.679Z,72.30
2023-03-29T17:00:57.085Z,73.10
2023-03-29T17:03:24.709Z,73.90
2023-03-29T17:05:54.566Z,74.70
2023-03-29T17:08:22.012Z,75.30
2023-03-29T17:10:53.347Z,75.50
2023-03-29T17:13:21.385Z,75.90
2023-03-29T17:15:52.136Z,76.30
2023-03-29T17:18:24.342Z,76.80
2023-03-29T17:20:52.016Z,77.20
2023-03-29T17:23:18.956Z,77.80
2023-03-29T17:25:45.712Z,78.40
2023-03-29T17:28:12.761Z,79.10
2023-03-29T17:30:40.139Z,79.80
2023-03-29T17:33:08.149Z,80.60
2023-03-29T17:35:35.161Z,81.30
2023-03-29T17:38:02.970Z,82.60
2023-03-29T17:40:29.791Z,82.50
2023-03-29T17:42:56.461Z,83.10
2023-03-29T17:45:23.243Z,84.00
2023-03-29T17:47:50.368Z,84.70
2023-03-29T17:50:17.590Z,85.50
2023-03-29T17:52:44.304Z,86.30
2023-03-29T17:55:13.559Z,87.20
2023-03-29T17:57:44.630Z,88.30
2023-03-29T18:00:13.691Z,89.30
2023-03-29T18:02:41.357Z,90.10
2023-03-29T18:05:09.524Z,90.40
2023-03-29T18:07:36.656Z,90.60
2023-03-29T18:10:04.809Z,91.00
2023-03-29T18:12:31.757Z,91.40
2023-03-29T18:14:58.893Z,91.70
2023-03-29T18:17:27.370Z,92.10
2023-03-29T18:19:54.743Z,92.30
2023-03-29T18:22:28.497Z,92.60
2023-03-29T18:24:55.308Z,92.90
2023-03-29T18:27:22.084Z,93.10
2023-03-29T18:29:48.871Z,93.40
2023-03-29T18:32:21.682Z,93.60
2023-03-29T18:34:48.476Z,93.80
2023-03-29T18:37:17.499Z,94.20
2023-03-29T18:39:45.723Z,94.00
2023-03-29T18:42:13.183Z,94.30
2023-03-29T18:44:40.684Z,94.60
2023-03-29T18:47:08.472Z,95.10
2023-03-29T18:49:36.955Z,95.10
2023-03-29T18:52:04.753Z,95.40
2023-03-29T18:54:31.560Z,95.60
2023-03-29T18:56:59.212Z,95.80
2023-03-29T18:59:26.321Z,96.00
2023-03-29T19:01:53.199Z,96.30
2023-03-29T19:04:20.060Z,96.40
2023-03-29T19:06:47.530Z,96.60
2023-03-29T19:09:14.502Z,96.80
2023-03-29T19:11:41.438Z,97.30
2023-03-29T19:14:09.159Z,97.10
2023-03-29T19:16:36.144Z,97.30
2023-03-29T19:19:04.981Z,97.30
2023-03-29T19:21:32.418Z,97.50
2023-03-29T19:24:00.999Z,97.60
2023-03-29T19:26:33.411Z,97.90
2023-03-29T19:29:01.272Z,98.00
2023-03-29T19:31:28.383Z,98.30
2023-03-29T19:33:55.443Z,98.40
2023-03-29T19:36:22.567Z,98.60
2023-03-29T19:38:49.380Z,98.80
2023-03-29T19:41:16.554Z,98.90
2023-03-29T19:43:43.637Z,99.00
2023-03-29T19:46:12.247Z,99.20
2023-03-29T19:48:39.703Z,99.40
2023-03-29T19:51:06.710Z,99.80
2023-03-29T19:53:33.658Z,99.50
2023-03-29T19:56:02.053Z,99.90
2023-03-29T19:58:29.051Z,99.90
2023-03-29T20:00:59.442Z,99.90
2023-03-29T20:03:29.820Z,99.90
2023-03-29T20:05:57.473Z,99.90
2023-03-29T20:08:24.954Z,99.90
2023-03-29T20:11:03.928Z,99.90
2023-03-29T20:13:38.258Z,99.90
2023-03-29T20:16:11.369Z,99.90
2023-03-29T20:18:44.862Z,99.90
2023-03-29T20:21:17.121Z,99.90
2023-03-29T20:23:44.388Z,99.90
2023-03-29T20:26:11.884Z,99.90
2023-03-29T20:28:38.755Z,99.90
2023-03-29T20:31:08.143Z,99.90
2023-03-29T20:33:34.969Z,99.90
2023-03-29T20:36:01.866Z,99.90
2023-03-29T20:38:28.680Z,99.90
2023-03-29T20:40:55.689Z,99.90
2023-03-29T20:43:22.555Z,99.90
2023-03-29T20:45:52.773Z,99.90
2023-03-29T20:48:31.001Z,99.90
2023-03-29T20:50:58.115Z,99.90
2023-03-29T20:53:25.763Z,99.90
2023-03-29T20:55:52.577Z,99.90
2023-03-29T20:58:19.280Z,99.90
2023-03-29T21:00:48.436Z,99.90
2023-03-29T21:03:15.288Z,99.90
2023-03-29T21:05:43.372Z,99.90
2023-03-29T21:08:10.200Z,99.90
2023-03-29T21:10:37.222Z,99.90
2023-03-29T21:13:03.919Z,99.90
2023-03-29T21:15:31.109Z,99.90
2023-03-29T21:17:58.540Z,99.90
2023-03-29T21:20:25.816Z,99.90
2023-03-29T21:22:52.591Z,99.90
2023-03-29T21:25:19.629Z,99.90
2023-03-29T21:27:46.805Z,99.90
2023-03-29T21:30:13.977Z,99.90
2023-03-29T21:32:41.062Z,99.90
2023-03-29T21:35:08.819Z,99.90
2023-03-29T21:37:35.640Z,99.90
2023-03-29T21:40:05.699Z,99.90
2023-03-29T21:42:33.578Z,99.90
2023-03-29T21:45:00.861Z,99.90
2023-03-29T21:47:27.677Z,99.90
2023-03-29T21:49:54.418Z,99.90
2023-03-29T21:52:21.590Z,99.90
2023-03-29T21:54:48.368Z,99.90
2023-03-29T21:57:15.239Z,99.90
2023-03-29T21:59:41.931Z,99.90
2023-03-29T22:02:08.680Z,99.90
2023-03-29T22:04:37.364Z,99.90
2023-03-29T22:07:05.456Z,99.90
2023-03-29T22:09:35.020Z,99.90
2023-03-29T22:12:03.027Z,99.90
2023-03-29T22:14:34.740Z,99.90
2023-03-29T22:17:02.190Z,99.90
2023-03-29T22:19:28.946Z,99.90
2023-03-29T22:22:01.530Z,99.90
2023-03-29T22:24:29.143Z,99.90
2023-03-29T22:26:56.114Z,99.90
2023-03-29T22:29:22.918Z,99.90
2023-03-29T22:31:49.787Z,99.90
2023-03-29T22:34:16.615Z,99.90
2023-03-29T22:36:43.342Z,99.90
2023-03-29T22:39:11.235Z,99.90
2023-03-29T22:41:37.936Z,99.90
2023-03-29T22:44:05.067Z,99.90
2023-03-29T22:46:31.940Z,99.90
2023-03-29T22:48:58.864Z,99.90
2023-03-29T22:51:25.668Z,99.90
2023-03-29T22:53:52.420Z,99.90
2023-03-29T22:56:19.203Z,99.90
2023-03-29T22:58:46.077Z,99.90
2023-03-29T23:01:13.301Z,99.90
2023-03-29T23:03:40.534Z,99.90
2023-03-29T23:06:07.581Z,99.90
2023-03-29T23:08:35.290Z,99.90
2023-03-29T23:11:03.097Z,99.90
2023-03-29T23:13:30.397Z,99.90
2023-03-29T23:15:59.805Z,99.90
2023-03-29T23:18:28.802Z,99.90
2023-03-29T23:20:57.485Z,99.90
2023-03-29T23:23:25.436Z,99.90
2023-03-29T23:25:53.272Z,99.90
2023-03-29T23:28:23.509Z,99.90
2023-03-29T23:31:00.296Z,99.90
2023-03-29T23:33:28.980Z,99.90
2023-03-29T23:35:55.749Z,99.90
2023-03-29T23:38:23.105Z,99.90
2023-03-29T23:40:58.751Z,99.90
2023-03-29T23:43:33.008Z,99.80
2023-03-29T23:46:04.508Z,99.60
2023-03-29T23:48:32.634Z,99.80
2023-03-29T23:50:59.910Z,99.50
2023-03-29T23:53:28.971Z,99.40
2023-03-29T23:56:05.010Z,99.10
2023-03-29T23:58:34.846Z,98.50
